sensor_id;sensor_type;location;lat;lon;timestamp;temperature;humidity
7646;DHT22;3864;48.180;14.178;2024-02-21T00:29:11;5.50;99.90
7646;DHT22;3864;48.180;14.178;2024-02-21T00:35:07;5.40;99.90
7646;DHT22;3864;48.180;14.178;2024-02-21T00:48:30;5.30;99.90
7646;DHT22;3864;48.180;14.178;2024-02-21T01:15:21;5.70;99.90
7646;DHT22;3864;48.180;14.178;2024-02-21T01:17:47;5.60;99.90
7646;DHT22;3864;48.180;14.178;2024-02-21T01:20:16;5.60;99.90
7646;DHT22;3864;48.180;14.178;2024-02-21T01:22:43;5.50;99.90
7646;DHT22;3864;48.180;14.178;2024-02-21T01:25:10;5.40;99.90
7646;DHT22;3864;48.180;14.178;2024-02-21T01:27:38;5.30;99.90
7646;DHT22;3864;48.180;14.178;2024-02-21T01:30:06;5.30;99.90
7646;DHT22;3864;48.180;14.178;2024-02-21T01:32:34;5.30;99.90
7646;DHT22;3864;48.180;14.178;2024-02-21T01:35:01;5.30;99.90
7646;DHT22;3864;48.180;14.178;2024-02-21T01:37:29;5.20;99.90
7646;DHT22;3864;48.180;14.178;2024-02-21T01:39:56;5.20;99.90
7646;DHT22;3864;48.180;14.178;2024-02-21T01:42:23;5.30;99.90
7646;DHT22;3864;48.180;14.178;2024-02-21T01:44:50;5.40;99.90
7646;DHT22;3864;48.180;14.178;2024-02-21T01:47:17;5.50;99.90
7646;DHT22;3864;48.180;14.178;2024-02-21T01:49:47;5.40;99.90
7646;DHT22;3864;48.180;14.178;2024-02-21T01:52:15;5.50;99.90
7646;DHT22;3864;48.180;14.178;2024-02-21T01:54:43;5.50;99.90
7646;DHT22;3864;48.180;14.178;2024-02-21T01:57:11;5.40;99.90
7646;DHT22;3864;48.180;14.178;2024-02-21T01:59:38;5.40;99.90
7646;DHT22;3864;48.180;14.178;2024-02-21T02:02:06;5.30;99.90
7646;DHT22;3864;48.180;14.178;2024-02-21T02:04:33;5.20;99.90
7646;DHT22;3864;48.180;14.178;2024-02-21T02:07:04;5.20;99.90
7646;DHT22;3864;48.180;14.178;2024-02-21T02:09:33;5.10;99.90
7646;DHT22;3864;48.180;14.178;2024-02-21T02:12:00;5.00;99.90
7646;DHT22;3864;48.180;14.178;2024-02-21T02:14:28;4.90;99.90
7646;DHT22;3864;48.180;14.178;2024-02-21T02:16:55;4.90;99.90
7646;DHT22;3864;48.180;14.178;2024-02-21T02:19:22;5.00;99.90
7646;DHT22;3864;48.180;14.178;2024-02-21T02:21:51;5.10;99.90
7646;DHT22;3864;48.180;14.178;2024-02-21T02:24:24;5.20;99.90
7646;DHT22;3864;48.180;14.178;2024-02-21T02:26:52;5.30;99.90
7646;DHT22;3864;48.180;14.178;2024-02-21T02:29:19;5.30;99.90
7646;DHT22;3864;48.180;14.178;2024-02-21T02:31:46;5.50;99.90
7646;DHT22;3864;48.180;14.178;2024-02-21T02:34:13;5.50;99.90
7646;DHT22;3864;48.180;14.178;2024-02-21T02:36:40;5.50;99.90
7646;DHT22;3864;48.180;14.178;2024-02-21T02:39:07;5.60;99.90
7646;DHT22;3864;48.180;14.178;2024-02-21T02:41:36;5.60;99.90
7646;DHT22;3864;48.180;14.178;2024-02-21T02:44:03;5.70;99.90
7646;DHT22;3864;48.180;14.178;2024-02-21T02:46:30;5.70;99.90
7646;DHT22;3864;48.180;14.178;2024-02-21T02:48:57;5.70;99.90
7646;DHT22;3864;48.180;14.178;2024-02-21T02:51:25;5.70;99.90
7646;DHT22;3864;48.180;14.178;2024-02-21T02:53:52;5.70;99.90
7646;DHT22;3864;48.180;14.178;2024-02-21T02:56:18;5.70;99.90
7646;DHT22;3864;48.180;14.178;2024-02-21T02:58:47;5.80;99.90
7646;DHT22;3864;48.180;14.178;2024-02-21T03:01:14;5.80;99.90
7646;DHT22;3864;48.180;14.178;2024-02-21T03:03:41;5.80;99.90
7646;DHT22;3864;48.180;14.178;2024-02-21T03:06:08;5.90;99.90
7646;DHT22;3864;48.180;14.178;2024-02-21T03:08:36;6.00;99.90
7646;DHT22;3864;48.180;14.178;2024-02-21T03:11:03;6.00;99.90
7646;DHT22;3864;48.180;14.178;2024-02-21T03:13:30;6.00;99.90
7646;DHT22;3864;48.180;14.178;2024-02-21T03:15:59;6.00;99.90
7646;DHT22;3864;48.180;14.178;2024-02-21T03:18:26;6.00;99.90
7646;DHT22;3864;48.180;14.178;2024-02-21T03:20:53;6.00;99.90
7646;DHT22;3864;48.180;14.178;2024-02-21T03:23:20;6.00;99.90
7646;DHT22;3864;48.180;14.178;2024-02-21T03:25:47;6.00;99.90
7646;DHT22;3864;48.180;14.178;2024-02-21T03:28:14;6.10;99.90
7646;DHT22;3864;48.180;14.178;2024-02-21T03:30:42;6.10;99.90
7646;DHT22;3864;48.180;14.178;2024-02-21T03:33:10;6.10;99.90
7646;DHT22;3864;48.180;14.178;2024-02-21T03:35:37;6.00;99.90
7646;DHT22;3864;48.180;14.178;2024-02-21T03:38:04;6.00;99.90
7646;DHT22;3864;48.180;14.178;2024-02-21T03:40:31;6.00;99.90
7646;DHT22;3864;48.180;14.178;2024-02-21T03:42:58;6.00;99.90
7646;DHT22;3864;48.180;14.178;2024-02-21T03:45:26;5.90;99.90
7646;DHT22;3864;48.180;14.178;2024-02-21T03:47:53;5.90;99.90
7646;DHT22;3864;48.180;14.178;2024-02-21T03:50:21;5.80;99.90
7646;DHT22;3864;48.180;14.178;2024-02-21T03:52:49;5.80;99.90
7646;DHT22;3864;48.180;14.178;2024-02-21T03:55:16;5.80;99.90
7646;DHT22;3864;48.180;14.178;2024-02-21T03:57:43;5.70;99.90
7646;DHT22;3864;48.180;14.178;2024-02-21T04:00:11;5.80;99.90
7646;DHT22;3864;48.180;14.178;2024-02-21T04:02:39;5.80;99.90
7646;DHT22;3864;48.180;14.178;2024-02-21T04:05:06;5.70;99.90
7646;DHT22;3864;48.180;14.178;2024-02-21T04:07:38;5.70;99.90
7646;DHT22;3864;48.180;14.178;2024-02-21T04:10:06;5.70;99.90
7646;DHT22;3864;48.180;14.178;2024-02-21T04:12:33;5.70;99.90
7646;DHT22;3864;48.180;14.178;2024-02-21T04:15:00;5.70;99.90
7646;DHT22;3864;48.180;14.178;2024-02-21T04:17:28;5.80;99.90
7646;DHT22;3864;48.180;14.178;2024-02-21T04:20:02;5.80;99.90
7646;DHT22;3864;48.180;14.178;2024-02-21T04:22:30;5.80;99.90
7646;DHT22;3864;48.180;14.178;2024-02-21T04:24:59;5.80;99.90
7646;DHT22;3864;48.180;14.178;2024-02-21T04:27:27;5.70;99.90
7646;DHT22;3864;48.180;14.178;2024-02-21T04:29:54;5.70;99.90
7646;DHT22;3864;48.180;14.178;2024-02-21T04:32:21;5.60;99.90
7646;DHT22;3864;48.180;14.178;2024-02-21T04:34:49;5.60;99.90
7646;DHT22;3864;48.180;14.178;2024-02-21T04:37:16;5.50;99.90
7646;DHT22;3864;48.180;14.178;2024-02-21T04:39:43;5.30;99.90
7646;DHT22;3864;48.180;14.178;2024-02-21T04:42:11;5.30;99.90
7646;DHT22;3864;48.180;14.178;2024-02-21T04:44:38;5.20;99.90
7646;DHT22;3864;48.180;14.178;2024-02-21T04:47:05;5.10;99.90
7646;DHT22;3864;48.180;14.178;2024-02-21T04:49:33;5.10;99.90
7646;DHT22;3864;48.180;14.178;2024-02-21T04:52:00;5.10;99.90
7646;DHT22;3864;48.180;14.178;2024-02-21T04:54:27;5.10;99.90
7646;DHT22;3864;48.180;14.178;2024-02-21T04:56:54;5.20;99.90
7646;DHT22;3864;48.180;14.178;2024-02-21T04:59:22;5.30;99.90
7646;DHT22;3864;48.180;14.178;2024-02-21T05:01:49;5.40;99.90
7646;DHT22;3864;48.180;14.178;2024-02-21T05:04:16;5.40;99.90
7646;DHT22;3864;48.180;14.178;2024-02-21T05:06:43;5.40;99.90
7646;DHT22;3864;48.180;14.178;2024-02-21T05:09:11;5.40;99.90
7646;DHT22;3864;48.180;14.178;2024-02-21T05:11:38;5.50;99.90
7646;DHT22;3864;48.180;14.178;2024-02-21T05:14:06;5.50;99.90
7646;DHT22;3864;48.180;14.178;2024-02-21T05:16:35;5.60;99.90
7646;DHT22;3864;48.180;14.178;2024-02-21T05:19:02;5.60;99.90
7646;DHT22;3864;48.180;14.178;2024-02-21T05:21:30;5.50;99.90
7646;DHT22;3864;48.180;14.178;2024-02-21T05:23:57;5.50;99.90
7646;DHT22;3864;48.180;14.178;2024-02-21T05:26:27;5.40;99.90
7646;DHT22;3864;48.180;14.178;2024-02-21T05:28:54;5.30;99.90
7646;DHT22;3864;48.180;14.178;2024-02-21T05:31:21;5.30;99.90
7646;DHT22;3864;48.180;14.178;2024-02-21T05:33:50;5.30;99.90
7646;DHT22;3864;48.180;14.178;2024-02-21T05:36:17;5.30;99.90
7646;DHT22;3864;48.180;14.178;2024-02-21T05:38:44;5.40;99.90
7646;DHT22;3864;48.180;14.178;2024-02-21T05:41:12;5.40;99.90
7646;DHT22;3864;48.180;14.178;2024-02-21T05:43:41;5.50;99.90
7646;DHT22;3864;48.180;14.178;2024-02-21T05:46:08;5.50;99.90
7646;DHT22;3864;48.180;14.178;2024-02-21T05:48:35;5.40;99.90
7646;DHT22;3864;48.180;14.178;2024-02-21T05:51:04;5.40;99.90
7646;DHT22;3864;48.180;14.178;2024-02-21T05:53:31;5.40;99.90
7646;DHT22;3864;48.180;14.178;2024-02-21T05:55:58;5.40;99.90
7646;DHT22;3864;48.180;14.178;2024-02-21T05:58:25;5.40;99.90
7646;DHT22;3864;48.180;14.178;2024-02-21T06:00:57;5.40;99.90
7646;DHT22;3864;48.180;14.178;2024-02-21T06:03:24;5.30;99.90
7646;DHT22;3864;48.180;14.178;2024-02-21T06:05:51;5.30;99.90
7646;DHT22;3864;48.180;14.178;2024-02-21T06:08:20;5.20;99.90
7646;DHT22;3864;48.180;14.178;2024-02-21T06:10:47;5.10;99.90
7646;DHT22;3864;48.180;14.178;2024-02-21T06:13:17;5.10;99.90
7646;DHT22;3864;48.180;14.178;2024-02-21T06:15:44;5.10;99.90
7646;DHT22;3864;48.180;14.178;2024-02-21T06:18:11;5.20;99.90
7646;DHT22;3864;48.180;14.178;2024-02-21T06:20:38;5.20;99.90
7646;DHT22;3864;48.180;14.178;2024-02-21T06:23:06;5.20;99.90
7646;DHT22;3864;48.180;14.178;2024-02-21T06:25:34;5.20;99.90
7646;DHT22;3864;48.180;14.178;2024-02-21T06:28:00;5.30;99.90
7646;DHT22;3864;48.180;14.178;2024-02-21T06:30:28;5.40;99.90
7646;DHT22;3864;48.180;14.178;2024-02-21T06:32:55;5.50;99.90
7646;DHT22;3864;48.180;14.178;2024-02-21T06:35:22;5.50;99.90
7646;DHT22;3864;48.180;14.178;2024-02-21T06:37:50;5.40;99.90
7646;DHT22;3864;48.180;14.178;2024-02-21T06:40:17;5.40;99.90
7646;DHT22;3864;48.180;14.178;2024-02-21T06:42:46;5.40;99.90
7646;DHT22;3864;48.180;14.178;2024-02-21T06:45:13;5.30;99.90
7646;DHT22;3864;48.180;14.178;2024-02-21T06:47:40;5.30;99.90
7646;DHT22;3864;48.180;14.178;2024-02-21T06:50:08;5.30;99.90
7646;DHT22;3864;48.180;14.178;2024-02-21T06:52:35;5.40;99.90
7646;DHT22;3864;48.180;14.178;2024-02-21T06:55:02;5.50;99.90
7646;DHT22;3864;48.180;14.178;2024-02-21T06:57:29;5.50;99.90
7646;DHT22;3864;48.180;14.178;2024-02-21T06:59:58;5.60;99.90
7646;DHT22;3864;48.180;14.178;2024-02-21T07:02:25;5.70;99.90
7646;DHT22;3864;48.180;14.178;2024-02-21T07:04:52;5.80;99.90
7646;DHT22;3864;48.180;14.178;2024-02-21T07:07:19;5.80;99.90
7646;DHT22;3864;48.180;14.178;2024-02-21T07:09:47;5.90;99.90
7646;DHT22;3864;48.180;14.178;2024-02-21T07:12:14;5.90;99.90
7646;DHT22;3864;48.180;14.178;2024-02-21T07:14:41;6.00;99.90
7646;DHT22;3864;48.180;14.178;2024-02-21T07:17:10;6.00;99.90
7646;DHT22;3864;48.180;14.178;2024-02-21T07:19:37;6.10;99.90
7646;DHT22;3864;48.180;14.178;2024-02-21T07:22:05;6.20;99.90
7646;DHT22;3864;48.180;14.178;2024-02-21T07:24:32;6.30;99.90
7646;DHT22;3864;48.180;14.178;2024-02-21T07:26:59;6.40;99.90
7646;DHT22;3864;48.180;14.178;2024-02-21T07:29:29;6.40;99.90
7646;DHT22;3864;48.180;14.178;2024-02-21T07:31:57;6.40;99.90
7646;DHT22;3864;48.180;14.178;2024-02-21T07:34:25;6.40;99.90
7646;DHT22;3864;48.180;14.178;2024-02-21T07:36:52;6.40;99.90
7646;DHT22;3864;48.180;14.178;2024-02-21T07:39:19;6.40;99.90
7646;DHT22;3864;48.180;14.178;2024-02-21T07:41:46;6.40;99.90
7646;DHT22;3864;48.180;14.178;2024-02-21T07:44:14;6.30;99.90
7646;DHT22;3864;48.180;14.178;2024-02-21T07:46:42;6.20;99.90
7646;DHT22;3864;48.180;14.178;2024-02-21T07:49:09;6.20;99.90
7646;DHT22;3864;48.180;14.178;2024-02-21T07:51:37;6.20;99.90
7646;DHT22;3864;48.180;14.178;2024-02-21T07:54:04;6.20;99.90
7646;DHT22;3864;48.180;14.178;2024-02-21T07:56:31;6.20;99.90
7646;DHT22;3864;48.180;14.178;2024-02-21T07:58:58;6.30;99.90
7646;DHT22;3864;48.180;14.178;2024-02-21T08:01:25;6.30;99.90
7646;DHT22;3864;48.180;14.178;2024-02-21T08:03:52;6.30;99.90
7646;DHT22;3864;48.180;14.178;2024-02-21T08:06:19;6.40;99.90
7646;DHT22;3864;48.180;14.178;2024-02-21T08:08:48;6.70;99.90
7646;DHT22;3864;48.180;14.178;2024-02-21T08:11:15;7.00;99.90
7646;DHT22;3864;48.180;14.178;2024-02-21T08:13:42;7.20;99.90
7646;DHT22;3864;48.180;14.178;2024-02-21T08:16:09;7.50;99.90
7646;DHT22;3864;48.180;14.178;2024-02-21T08:18:36;7.80;99.90
7646;DHT22;3864;48.180;14.178;2024-02-21T08:21:04;8.10;99.90
7646;DHT22;3864;48.180;14.178;2024-02-21T08:23:33;8.50;99.90
7646;DHT22;3864;48.180;14.178;2024-02-21T08:26:03;8.80;99.90
7646;DHT22;3864;48.180;14.178;2024-02-21T08:28:30;9.10;99.90
7646;DHT22;3864;48.180;14.178;2024-02-21T08:30:57;9.30;99.90
7646;DHT22;3864;48.180;14.178;2024-02-21T08:33:24;9.40;99.90
7646;DHT22;3864;48.180;14.178;2024-02-21T08:35:51;9.30;99.90
7646;DHT22;3864;48.180;14.178;2024-02-21T08:38:19;9.10;99.90
7646;DHT22;3864;48.180;14.178;2024-02-21T08:40:46;8.60;99.90
7646;DHT22;3864;48.180;14.178;2024-02-21T08:43:14;8.50;99.90
7646;DHT22;3864;48.180;14.178;2024-02-21T08:45:44;8.50;99.90
7646;DHT22;3864;48.180;14.178;2024-02-21T08:48:11;8.50;99.90
7646;DHT22;3864;48.180;14.178;2024-02-21T08:50:38;8.50;99.90
7646;DHT22;3864;48.180;14.178;2024-02-21T08:53:05;8.50;99.90
7646;DHT22;3864;48.180;14.178;2024-02-21T08:55:32;8.30;99.90
7646;DHT22;3864;48.180;14.178;2024-02-21T08:58:01;8.40;99.90
7646;DHT22;3864;48.180;14.178;2024-02-21T09:00:31;8.40;99.90
7646;DHT22;3864;48.180;14.178;2024-02-21T09:02:58;8.20;99.90
7646;DHT22;3864;48.180;14.178;2024-02-21T09:05:25;8.10;99.90
7646;DHT22;3864;48.180;14.178;2024-02-21T09:07:52;8.10;99.90
7646;DHT22;3864;48.180;14.178;2024-02-21T09:10:19;8.20;99.90
7646;DHT22;3864;48.180;14.178;2024-02-21T09:12:47;8.50;99.90
7646;DHT22;3864;48.180;14.178;2024-02-21T09:15:14;8.50;99.90
7646;DHT22;3864;48.180;14.178;2024-02-21T09:17:43;8.60;99.90
7646;DHT22;3864;48.180;14.178;2024-02-21T09:20:11;8.60;99.90
7646;DHT22;3864;48.180;14.178;2024-02-21T09:22:41;8.80;99.90
7646;DHT22;3864;48.180;14.178;2024-02-21T09:25:09;8.90;99.90
7646;DHT22;3864;48.180;14.178;2024-02-21T09:27:37;9.00;99.90
7646;DHT22;3864;48.180;14.178;2024-02-21T09:30:06;9.00;99.90
7646;DHT22;3864;48.180;14.178;2024-02-21T09:32:33;9.20;99.90
7646;DHT22;3864;48.180;14.178;2024-02-21T09:35:02;9.60;99.90
7646;DHT22;3864;48.180;14.178;2024-02-21T09:37:29;9.90;99.90
7646;DHT22;3864;48.180;14.178;2024-02-21T09:39:56;10.00;99.90
7646;DHT22;3864;48.180;14.178;2024-02-21T09:42:29;10.40;99.90
7646;DHT22;3864;48.180;14.178;2024-02-21T09:44:58;10.40;99.90
7646;DHT22;3864;48.180;14.178;2024-02-21T09:47:34;10.50;99.90
7646;DHT22;3864;48.180;14.178;2024-02-21T09:50:09;10.60;99.90
7646;DHT22;3864;48.180;14.178;2024-02-21T09:52:36;10.90;99.90
7646;DHT22;3864;48.180;14.178;2024-02-21T09:55:06;11.00;99.90
7646;DHT22;3864;48.180;14.178;2024-02-21T09:57:37;11.00;99.90
7646;DHT22;3864;48.180;14.178;2024-02-21T10:00:06;11.10;99.90
7646;DHT22;3864;48.180;14.178;2024-02-21T10:02:34;10.80;99.90
7646;DHT22;3864;48.180;14.178;2024-02-21T10:05:02;10.40;99.90
7646;DHT22;3864;48.180;14.178;2024-02-21T10:07:35;10.10;99.90
7646;DHT22;3864;48.180;14.178;2024-02-21T10:10:04;10.40;99.90
7646;DHT22;3864;48.180;14.178;2024-02-21T10:12:31;10.70;99.90
7646;DHT22;3864;48.180;14.178;2024-02-21T10:15:02;10.40;99.90
7646;DHT22;3864;48.180;14.178;2024-02-21T10:17:29;10.70;99.90
7646;DHT22;3864;48.180;14.178;2024-02-21T10:20:07;11.10;99.90
7646;DHT22;3864;48.180;14.178;2024-02-21T10:22:37;11.20;99.90
7646;DHT22;3864;48.180;14.178;2024-02-21T10:25:08;11.30;99.90
7646;DHT22;3864;48.180;14.178;2024-02-21T10:27:35;11.40;99.90
7646;DHT22;3864;48.180;14.178;2024-02-21T10:30:04;11.40;99.90
7646;DHT22;3864;48.180;14.178;2024-02-21T10:32:31;11.50;99.90
7646;DHT22;3864;48.180;14.178;2024-02-21T10:35:02;11.70;99.90
7646;DHT22;3864;48.180;14.178;2024-02-21T10:37:30;11.80;99.90
7646;DHT22;3864;48.180;14.178;2024-02-21T10:40:00;11.70;99.90
7646;DHT22;3864;48.180;14.178;2024-02-21T10:42:29;11.30;99.90
7646;DHT22;3864;48.180;14.178;2024-02-21T10:45:01;11.10;99.90
7646;DHT22;3864;48.180;14.178;2024-02-21T10:47:31;11.40;99.90
7646;DHT22;3864;48.180;14.178;2024-02-21T10:50:03;11.80;99.90
7646;DHT22;3864;48.180;14.178;2024-02-21T10:52:39;12.00;99.90
7646;DHT22;3864;48.180;14.178;2024-02-21T10:55:20;12.00;99.90
7646;DHT22;3864;48.180;14.178;2024-02-21T10:57:50;12.00;99.90
7646;DHT22;3864;48.180;14.178;2024-02-21T11:00:18;12.30;99.90
7646;DHT22;3864;48.180;14.178;2024-02-21T11:02:46;12.60;99.90
7646;DHT22;3864;48.180;14.178;2024-02-21T11:05:14;12.60;99.90
7646;DHT22;3864;48.180;14.178;2024-02-21T11:07:41;12.60;99.90
7646;DHT22;3864;48.180;14.178;2024-02-21T11:10:23;12.70;99.90
7646;DHT22;3864;48.180;14.178;2024-02-21T11:12:53;12.60;99.90
7646;DHT22;3864;48.180;14.178;2024-02-21T11:15:25;12.70;99.90
7646;DHT22;3864;48.180;14.178;2024-02-21T11:17:56;12.70;99.90
7646;DHT22;3864;48.180;14.178;2024-02-21T11:20:32;12.10;99.90
7646;DHT22;3864;48.180;14.178;2024-02-21T11:23:00;12.30;99.90
7646;DHT22;3864;48.180;14.178;2024-02-21T11:25:30;12.20;99.90
7646;DHT22;3864;48.180;14.178;2024-02-21T11:28:00;12.20;99.90
7646;DHT22;3864;48.180;14.178;2024-02-21T11:30:27;12.30;99.90
7646;DHT22;3864;48.180;14.178;2024-02-21T11:33:03;12.40;99.90
7646;DHT22;3864;48.180;14.178;2024-02-21T11:35:34;12.30;99.90
7646;DHT22;3864;48.180;14.178;2024-02-21T11:38:11;12.40;99.90
7646;DHT22;3864;48.180;14.178;2024-02-21T11:40:44;12.20;99.90
7646;DHT22;3864;48.180;14.178;2024-02-21T11:43:11;12.20;99.90
7646;DHT22;3864;48.180;14.178;2024-02-21T11:45:38;12.20;99.90
7646;DHT22;3864;48.180;14.178;2024-02-21T11:48:06;12.20;99.90
7646;DHT22;3864;48.180;14.178;2024-02-21T11:50:34;12.10;99.90
7646;DHT22;3864;48.180;14.178;2024-02-21T11:53:02;12.40;99.90
7646;DHT22;3864;48.180;14.178;2024-02-21T11:55:29;12.30;99.90
7646;DHT22;3864;48.180;14.178;2024-02-21T11:57:58;12.50;99.90
7646;DHT22;3864;48.180;14.178;2024-02-21T12:00:26;12.60;99.90
7646;DHT22;3864;48.180;14.178;2024-02-21T12:02:53;12.70;99.90
7646;DHT22;3864;48.180;14.178;2024-02-21T12:05:27;12.80;99.90
7646;DHT22;3864;48.180;14.178;2024-02-21T12:07:55;12.80;99.90
7646;DHT22;3864;48.180;14.178;2024-02-21T12:10:24;12.50;99.90
7646;DHT22;3864;48.180;14.178;2024-02-21T12:12:53;12.60;99.90
7646;DHT22;3864;48.180;14.178;2024-02-21T12:15:25;12.70;99.90
7646;DHT22;3864;48.180;14.178;2024-02-21T12:17:52;12.80;99.90
7646;DHT22;3864;48.180;14.178;2024-02-21T12:20:20;12.70;99.90
7646;DHT22;3864;48.180;14.178;2024-02-21T12:22:49;12.80;99.90
7646;DHT22;3864;48.180;14.178;2024-02-21T12:25:18;12.80;99.90
7646;DHT22;3864;48.180;14.178;2024-02-21T12:27:48;12.80;99.90
7646;DHT22;3864;48.180;14.178;2024-02-21T12:30:30;12.60;99.90
7646;DHT22;3864;48.180;14.178;2024-02-21T12:32:59;12.30;99.90
7646;DHT22;3864;48.180;14.178;2024-02-21T12:35:27;11.80;99.90
7646;DHT22;3864;48.180;14.178;2024-02-21T12:37:54;11.50;99.90
7646;DHT22;3864;48.180;14.178;2024-02-21T12:40:21;11.30;99.90
7646;DHT22;3864;48.180;14.178;2024-02-21T12:42:50;11.20;99.90
7646;DHT22;3864;48.180;14.178;2024-02-21T12:45:18;11.00;99.90
7646;DHT22;3864;48.180;14.178;2024-02-21T12:47:46;10.90;99.90
7646;DHT22;3864;48.180;14.178;2024-02-21T12:50:13;10.90;99.90
7646;DHT22;3864;48.180;14.178;2024-02-21T12:52:40;11.00;99.90
7646;DHT22;3864;48.180;14.178;2024-02-21T12:55:08;11.10;99.90
7646;DHT22;3864;48.180;14.178;2024-02-21T12:57:37;11.30;99.90
7646;DHT22;3864;48.180;14.178;2024-02-21T13:00:06;11.30;99.90
7646;DHT22;3864;48.180;14.178;2024-02-21T13:02:34;11.20;99.90
7646;DHT22;3864;48.180;14.178;2024-02-21T13:05:04;11.10;99.90
7646;DHT22;3864;48.180;14.178;2024-02-21T13:07:32;11.20;99.90
7646;DHT22;3864;48.180;14.178;2024-02-21T13:09:59;11.20;99.90
7646;DHT22;3864;48.180;14.178;2024-02-21T13:12:27;11.30;99.90
7646;DHT22;3864;48.180;14.178;2024-02-21T13:14:56;11.40;99.90
7646;DHT22;3864;48.180;14.178;2024-02-21T13:17:23;11.40;99.90
7646;DHT22;3864;48.180;14.178;2024-02-21T13:19:55;11.40;99.90
7646;DHT22;3864;48.180;14.178;2024-02-21T13:22:24;11.40;99.90
7646;DHT22;3864;48.180;14.178;2024-02-21T13:24:52;11.20;99.90
7646;DHT22;3864;48.180;14.178;2024-02-21T13:27:19;11.30;99.90
7646;DHT22;3864;48.180;14.178;2024-02-21T13:29:46;11.20;99.90
7646;DHT22;3864;48.180;14.178;2024-02-21T13:32:13;11.00;99.90
7646;DHT22;3864;48.180;14.178;2024-02-21T13:34:41;10.90;99.90
7646;DHT22;3864;48.180;14.178;2024-02-21T13:37:08;10.80;99.90
7646;DHT22;3864;48.180;14.178;2024-02-21T13:39:37;10.70;99.90
7646;DHT22;3864;48.180;14.178;2024-02-21T13:42:05;10.80;99.90
7646;DHT22;3864;48.180;14.178;2024-02-21T13:44:32;11.10;99.90
7646;DHT22;3864;48.180;14.178;2024-02-21T13:47:00;11.20;99.90
7646;DHT22;3864;48.180;14.178;2024-02-21T13:49:27;11.20;99.90
7646;DHT22;3864;48.180;14.178;2024-02-21T13:51:56;11.30;99.90
7646;DHT22;3864;48.180;14.178;2024-02-21T13:54:23;11.40;99.90
7646;DHT22;3864;48.180;14.178;2024-02-21T13:56:52;11.50;99.90
7646;DHT22;3864;48.180;14.178;2024-02-21T13:59:19;11.40;99.90
7646;DHT22;3864;48.180;14.178;2024-02-21T14:01:46;11.30;99.90
7646;DHT22;3864;48.180;14.178;2024-02-21T14:04:13;11.20;99.90
7646;DHT22;3864;48.180;14.178;2024-02-21T14:06:40;11.20;99.90
7646;DHT22;3864;48.180;14.178;2024-02-21T14:09:08;11.20;99.90
7646;DHT22;3864;48.180;14.178;2024-02-21T14:11:36;11.20;99.90
7646;DHT22;3864;48.180;14.178;2024-02-21T14:14:07;11.30;99.90
7646;DHT22;3864;48.180;14.178;2024-02-21T14:16:34;11.60;99.90
7646;DHT22;3864;48.180;14.178;2024-02-21T14:19:01;11.60;99.90
7646;DHT22;3864;48.180;14.178;2024-02-21T14:21:28;11.60;99.90
7646;DHT22;3864;48.180;14.178;2024-02-21T14:23:55;11.60;99.90
7646;DHT22;3864;48.180;14.178;2024-02-21T14:26:24;11.70;99.90
7646;DHT22;3864;48.180;14.178;2024-02-21T14:28:51;11.80;99.90
7646;DHT22;3864;48.180;14.178;2024-02-21T14:31:19;11.80;99.90
7646;DHT22;3864;48.180;14.178;2024-02-21T14:33:47;11.80;99.90
7646;DHT22;3864;48.180;14.178;2024-02-21T14:36:14;11.80;99.90
7646;DHT22;3864;48.180;14.178;2024-02-21T14:38:42;11.80;99.90
7646;DHT22;3864;48.180;14.178;2024-02-21T14:41:09;11.90;99.90
7646;DHT22;3864;48.180;14.178;2024-02-21T14:43:37;11.90;99.90
7646;DHT22;3864;48.180;14.178;2024-02-21T14:46:04;11.90;99.90
7646;DHT22;3864;48.180;14.178;2024-02-21T14:48:34;12.00;99.90
7646;DHT22;3864;48.180;14.178;2024-02-21T14:51:02;12.20;99.90
7646;DHT22;3864;48.180;14.178;2024-02-21T14:53:29;12.30;99.90
7646;DHT22;3864;48.180;14.178;2024-02-21T14:55:57;12.40;99.90
7646;DHT22;3864;48.180;14.178;2024-02-21T14:58:24;12.30;99.90
7646;DHT22;3864;48.180;14.178;2024-02-21T15:00:53;12.10;99.90
7646;DHT22;3864;48.180;14.178;2024-02-21T15:03:20;12.10;99.90
7646;DHT22;3864;48.180;14.178;2024-02-21T15:05:48;12.00;99.90
7646;DHT22;3864;48.180;14.178;2024-02-21T15:08:15;12.00;99.90
7646;DHT22;3864;48.180;14.178;2024-02-21T15:10:45;12.00;99.90
7646;DHT22;3864;48.180;14.178;2024-02-21T15:13:12;11.90;99.90
7646;DHT22;3864;48.180;14.178;2024-02-21T15:15:40;11.90;99.90
7646;DHT22;3864;48.180;14.178;2024-02-21T15:18:07;11.70;99.90
7646;DHT22;3864;48.180;14.178;2024-02-21T15:20:34;11.40;99.90
7646;DHT22;3864;48.180;14.178;2024-02-21T15:23:04;11.00;99.90
7646;DHT22;3864;48.180;14.178;2024-02-21T15:25:31;10.70;99.90
7646;DHT22;3864;48.180;14.178;2024-02-21T15:27:59;10.40;99.90
7646;DHT22;3864;48.180;14.178;2024-02-21T15:30:28;10.20;99.90
7646;DHT22;3864;48.180;14.178;2024-02-21T15:32:57;9.90;99.90
7646;DHT22;3864;48.180;14.178;2024-02-21T15:35:27;9.60;99.90
7646;DHT22;3864;48.180;14.178;2024-02-21T15:37:54;9.40;99.90
7646;DHT22;3864;48.180;14.178;2024-02-21T15:40:23;9.20;99.90
7646;DHT22;3864;48.180;14.178;2024-02-21T15:42:50;9.10;99.90
7646;DHT22;3864;48.180;14.178;2024-02-21T15:45:19;9.00;99.90
7646;DHT22;3864;48.180;14.178;2024-02-21T15:47:47;8.90;99.90
7646;DHT22;3864;48.180;14.178;2024-02-21T15:50:14;8.90;99.90
7646;DHT22;3864;48.180;14.178;2024-02-21T15:52:41;8.90;99.90
7646;DHT22;3864;48.180;14.178;2024-02-21T15:55:08;8.90;99.90
7646;DHT22;3864;48.180;14.178;2024-02-21T15:57:39;8.90;99.90
7646;DHT22;3864;48.180;14.178;2024-02-21T16:00:07;8.80;99.90
7646;DHT22;3864;48.180;14.178;2024-02-21T16:02:37;8.80;99.90
7646;DHT22;3864;48.180;14.178;2024-02-21T16:05:07;8.80;99.90
7646;DHT22;3864;48.180;14.178;2024-02-21T16:07:36;8.80;99.90
7646;DHT22;3864;48.180;14.178;2024-02-21T16:10:04;8.70;99.90
7646;DHT22;3864;48.180;14.178;2024-02-21T16:12:32;8.70;99.90
7646;DHT22;3864;48.180;14.178;2024-02-21T16:15:02;8.70;99.90
7646;DHT22;3864;48.180;14.178;2024-02-21T16:17:30;8.70;99.90
7646;DHT22;3864;48.180;14.178;2024-02-21T16:19:58;8.60;99.90
7646;DHT22;3864;48.180;14.178;2024-02-21T16:22:26;8.60;99.90
7646;DHT22;3864;48.180;14.178;2024-02-21T16:24:53;8.50;99.90
7646;DHT22;3864;48.180;14.178;2024-02-21T16:27:20;8.50;99.90
7646;DHT22;3864;48.180;14.178;2024-02-21T16:29:47;8.50;99.90
7646;DHT22;3864;48.180;14.178;2024-02-21T16:32:16;8.40;99.90
7646;DHT22;3864;48.180;14.178;2024-02-21T16:34:44;8.40;99.90
7646;DHT22;3864;48.180;14.178;2024-02-21T16:37:11;8.30;99.90
7646;DHT22;3864;48.180;14.178;2024-02-21T16:39:40;8.20;99.90
7646;DHT22;3864;48.180;14.178;2024-02-21T16:42:07;8.00;99.90
7646;DHT22;3864;48.180;14.178;2024-02-21T16:44:36;7.90;99.90
7646;DHT22;3864;48.180;14.178;2024-02-21T16:47:04;7.80;99.90
7646;DHT22;3864;48.180;14.178;2024-02-21T16:49:32;7.60;99.90
7646;DHT22;3864;48.180;14.178;2024-02-21T16:51:59;7.60;99.90
7646;DHT22;3864;48.180;14.178;2024-02-21T16:54:27;7.50;99.90
7646;DHT22;3864;48.180;14.178;2024-02-21T16:56:54;7.50;99.90
7646;DHT22;3864;48.180;14.178;2024-02-21T16:59:21;7.50;99.90
7646;DHT22;3864;48.180;14.178;2024-02-21T17:01:48;7.40;99.90
7646;DHT22;3864;48.180;14.178;2024-02-21T17:04:17;7.40;99.90
7646;DHT22;3864;48.180;14.178;2024-02-21T17:06:46;7.20;99.90